createdAt,value
2023-02-08T00:01:23.952Z,67.77
2023-02-08T00:03:53.004Z,68.58
2023-02-08T00:06:21.023Z,70.42
2023-02-08T00:08:48.972Z,70.93
2023-02-08T00:11:17.349Z,68.84
2023-02-08T00:13:45.365Z,69.98
2023-02-08T00:16:14.791Z,68.41
2023-02-08T00:18:43.190Z,68.64
2023-02-08T00:21:13.950Z,72.37
2023-02-08T00:23:42.686Z,72.92
2023-02-08T00:26:11.113Z,69.99
2023-02-08T00:28:39.450Z,69.93
2023-02-08T00:31:07.814Z,69.96
2023-02-08T00:33:36.002Z,69.91
2023-02-08T00:36:06.337Z,69.34
2023-02-08T00:38:35.336Z,69.72
2023-02-08T00:41:03.719Z,69.56
2023-02-08T00:43:31.772Z,71.27
2023-02-08T00:46:00.771Z,71.02
2023-02-08T00:48:29.118Z,71.62
2023-02-08T00:51:06.809Z,71.82
2023-02-08T00:53:40.836Z,70.96
2023-02-08T00:56:10.172Z,70.18
2023-02-08T00:58:39.078Z,70.31
2023-02-08T01:01:08.011Z,69.35
2023-02-08T01:03:37.449Z,68.91
2023-02-08T01:06:08.355Z,68.61
2023-02-08T01:08:36.601Z,67.83
2023-02-08T01:11:14.806Z,66.97
2023-02-08T01:13:43.104Z,65.53
2023-02-08T01:16:15.103Z,65.53
2023-02-08T01:18:45.318Z,66.34
2023-02-08T01:21:15.816Z,67.55
2023-02-08T01:23:45.158Z,67.82
2023-02-08T01:26:14.353Z,69.16
2023-02-08T01:28:42.888Z,67.78
2023-02-08T01:31:15.668Z,67.70
2023-02-08T01:33:43.686Z,64.89
2023-02-08T01:36:12.580Z,64.64
2023-02-08T01:38:43.130Z,62.17
2023-02-08T01:41:20.095Z,62.49
2023-02-08T01:44:01.569Z,60.74
2023-02-08T01:46:33.965Z,61.97
2023-02-08T01:49:29.398Z,62.08
2023-02-08T01:52:10.828Z,62.34
2023-02-08T01:54:43.268Z,62.36
2023-02-08T01:57:12.163Z,61.87
2023-02-08T01:59:44.864Z,61.36
2023-02-08T02:02:15.529Z,63.68
2023-02-08T02:04:44.434Z,63.00
2023-02-08T02:07:13.104Z,63.69
2023-02-08T02:09:59.472Z,62.76
2023-02-08T02:12:28.519Z,63.45
2023-02-08T02:14:56.613Z,63.58
2023-02-08T02:17:24.948Z,62.70
2023-02-08T02:20:18.927Z,62.71
2023-02-08T02:23:11.770Z,62.61
2023-02-08T02:26:17.170Z,60.60
2023-02-08T02:29:16.432Z,59.68
2023-02-08T02:32:06.209Z,59.01
2023-02-08T02:34:54.085Z,61.12
2023-02-08T02:37:40.250Z,60.97
2023-02-08T02:40:14.182Z,61.77
2023-02-08T02:43:07.627Z,62.11
2023-02-08T02:45:45.688Z,63.01
2023-02-08T02:48:15.183Z,63.03
2023-02-08T02:50:55.527Z,61.09
2023-02-08T02:53:38.296Z,60.13
2023-02-08T02:56:11.241Z,61.76
2023-02-08T02:58:40.534Z,60.97
2023-02-08T03:01:08.909Z,60.76
2023-02-08T03:03:36.908Z,60.95
2023-02-08T03:06:12.949Z,60.34
2023-02-08T03:09:09.169Z,59.06
2023-02-08T03:11:37.552Z,58.55
2023-02-08T03:14:43.179Z,58.73
2023-02-08T03:17:46.189Z,56.95
2023-02-08T03:20:19.093Z,57.37
2023-02-08T03:23:10.403Z,57.12
2023-02-08T03:25:52.229Z,56.46
2023-02-08T03:28:31.237Z,57.17
2023-02-08T03:31:07.867Z,57.84
2023-02-08T03:33:48.400Z,55.73
2023-02-08T03:36:59.994Z,56.30
2023-02-08T03:39:29.339Z,57.51
2023-02-08T03:42:00.783Z,58.05
2023-02-08T03:44:35.779Z,59.69
2023-02-08T03:47:07.000Z,59.39
2023-02-08T03:49:36.853Z,58.74
2023-02-08T03:52:07.407Z,58.89
2023-02-08T03:54:54.490Z,60.81
2023-02-08T03:57:35.642Z,60.34
2023-02-08T04:00:10.149Z,59.74
2023-02-08T04:02:45.508Z,61.31
2023-02-08T04:05:14.224Z,60.66
2023-02-08T04:07:42.196Z,59.59
2023-02-08T04:10:10.252Z,58.69
2023-02-08T04:12:38.654Z,58.54
2023-02-08T04:15:07.003Z,57.79
2023-02-08T04:17:34.955Z,57.53
2023-02-08T04:20:03.366Z,57.27
2023-02-08T04:22:31.344Z,58.48
2023-02-08T04:24:59.708Z,59.35
2023-02-08T04:27:27.942Z,58.27
2023-02-08T04:29:55.845Z,57.95
2023-02-08T04:32:23.748Z,60.18
2023-02-08T04:34:52.065Z,60.34
2023-02-08T04:37:20.086Z,59.62
2023-02-08T04:39:48.066Z,57.99
2023-02-08T04:42:16.687Z,58.68
2023-02-08T04:44:44.692Z,59.48
2023-02-08T04:47:12.600Z,60.12
2023-02-08T04:49:40.861Z,59.31
2023-02-08T04:52:08.750Z,58.54
2023-02-08T04:54:36.653Z,57.95
2023-02-08T04:57:05.026Z,56.29
2023-02-08T04:59:32.916Z,55.90
2023-02-08T05:02:00.787Z,56.63
2023-02-08T05:04:30.875Z,56.39
2023-02-08T05:06:59.070Z,55.19
2023-02-08T05:09:27.050Z,55.56
2023-02-08T05:11:55.277Z,54.38
2023-02-08T05:14:23.340Z,54.19
2023-02-08T05:16:51.298Z,54.75
2023-02-08T05:19:19.507Z,54.73
2023-02-08T05:21:47.538Z,54.44
2023-02-08T05:24:15.586Z,54.57
2023-02-08T05:26:43.895Z,54.36
2023-02-08T05:29:11.799Z,54.42
2023-02-08T05:31:39.891Z,54.28
2023-02-08T05:34:08.274Z,55.14
2023-02-08T05:36:36.272Z,55.70
2023-02-08T05:39:04.831Z,53.86
2023-02-08T05:41:33.403Z,56.60
2023-02-08T05:44:01.313Z,55.73
2023-02-08T05:46:29.406Z,56.57
2023-02-08T05:48:57.920Z,55.96
2023-02-08T05:51:25.867Z,56.43
2023-02-08T05:53:53.849Z,55.27
2023-02-08T05:56:22.138Z,54.77
2023-02-08T05:58:50.158Z,54.58
2023-02-08T06:01:18.434Z,54.42
2023-02-08T06:03:46.790Z,55.55
2023-02-08T06:06:14.710Z,55.43
2023-02-08T06:08:42.796Z,55.44
2023-02-08T06:11:11.086Z,55.80
2023-02-08T06:13:41.998Z,55.81
2023-02-08T06:16:10.384Z,55.68
2023-02-08T06:18:38.547Z,56.76
2023-02-08T06:21:06.833Z,55.80
2023-02-08T06:23:35.188Z,55.89
2023-02-08T06:26:03.161Z,55.86
2023-02-08T06:28:31.180Z,57.28
2023-02-08T06:30:59.794Z,56.98
2023-02-08T06:33:27.842Z,56.96
2023-02-08T06:35:55.894Z,57.34
2023-02-08T06:38:24.282Z,56.77
2023-02-08T06:40:52.308Z,56.02
2023-02-08T06:43:20.501Z,59.71
2023-02-08T06:45:49.062Z,57.84
2023-02-08T06:48:17.152Z,58.27
2023-02-08T06:50:45.125Z,59.32
2023-02-08T06:53:13.533Z,59.83
2023-02-08T06:55:41.504Z,58.59
2023-02-08T06:58:10.035Z,57.93
2023-02-08T07:00:39.582Z,56.67
2023-02-08T07:03:07.728Z,55.42
2023-02-08T07:05:36.206Z,55.51
2023-02-08T07:08:05.409Z,54.51
2023-02-08T07:10:33.995Z,52.70
2023-02-08T07:13:04.913Z,54.74
2023-02-08T07:15:33.406Z,53.56
2023-02-08T07:18:01.651Z,53.69
2023-02-08T07:20:30.327Z,53.21
2023-02-08T07:22:59.616Z,52.61
2023-02-08T07:25:27.593Z,54.58
2023-02-08T07:27:55.608Z,54.34
2023-02-08T07:30:23.898Z,50.91
2023-02-08T07:32:51.887Z,53.60
2023-02-08T07:35:19.817Z,50.88
2023-02-08T07:37:48.185Z,48.69
2023-02-08T07:40:16.224Z,51.18
2023-02-08T07:42:44.220Z,46.72
2023-02-08T07:45:13.051Z,46.67
2023-02-08T07:47:41.192Z,46.41
2023-02-08T07:50:09.608Z,45.84
2023-02-08T07:52:37.963Z,45.45
2023-02-08T07:55:06.196Z,44.05
2023-02-08T07:57:34.197Z,46.28
2023-02-08T08:00:02.850Z,45.66
2023-02-08T08:02:39.981Z,45.82
2023-02-08T08:05:09.270Z,46.08
2023-02-08T08:07:37.635Z,47.68
2023-02-08T08:10:05.960Z,45.32
2023-02-08T08:12:34.301Z,46.37
2023-02-08T08:15:02.223Z,46.50
2023-02-08T08:17:30.410Z,46.33
2023-02-08T08:19:58.789Z,46.09
2023-02-08T08:22:28.944Z,45.73
2023-02-08T08:24:58.498Z,46.50
2023-02-08T08:27:26.811Z,45.17
2023-02-08T08:29:54.912Z,44.64
2023-02-08T08:32:23.275Z,43.86
2023-02-08T08:34:51.820Z,44.68
2023-02-08T08:37:19.668Z,44.00
2023-02-08T08:39:49.250Z,43.44
2023-02-08T08:42:17.851Z,42.98
2023-02-08T08:44:45.867Z,40.85
2023-02-08T08:47:14.007Z,41.00
2023-02-08T08:49:43.977Z,40.33
2023-02-08T08:52:12.778Z,40.53
2023-02-08T08:54:42.299Z,40.51
2023-02-08T08:57:10.568Z,39.16
2023-02-08T08:59:38.536Z,38.56
2023-02-08T09:02:06.761Z,39.37
2023-02-08T09:04:35.101Z,38.10
2023-02-08T09:07:03.118Z,38.24
2023-02-08T09:09:31.067Z,36.92
2023-02-08T09:11:59.366Z,36.94
2023-02-08T09:14:29.321Z,37.08
2023-02-08T09:16:57.280Z,36.65
2023-02-08T09:19:25.686Z,36.13
2023-02-08T09:21:53.729Z,36.80
2023-02-08T09:24:21.821Z,34.39
2023-02-08T09:26:50.346Z,34.15
2023-02-08T09:29:18.500Z,34.26
2023-02-08T09:31:46.636Z,34.49
2023-02-08T09:34:15.122Z,34.15
2023-02-08T09:36:44.279Z,35.69
2023-02-08T09:39:16.355Z,37.06
2023-02-08T09:42:03.491Z,38.18
2023-02-08T09:45:16.093Z,38.06
2023-02-08T09:47:59.508Z,37.59
2023-02-08T09:50:34.358Z,37.20
2023-02-08T09:53:34.506Z,37.39
2023-02-08T09:56:07.237Z,35.91
2023-02-08T09:58:43.692Z,33.36
2023-02-08T10:01:24.163Z,33.07
2023-02-08T10:03:57.296Z,32.59
2023-02-08T10:06:25.502Z,33.18
2023-02-08T10:08:54.577Z,31.65
2023-02-08T10:11:40.685Z,31.04
2023-02-08T10:14:44.702Z,30.47
2023-02-08T10:17:25.517Z,30.17
2023-02-08T10:20:26.427Z,30.49
2023-02-08T10:23:49.698Z,29.81
2023-02-08T10:26:35.386Z,30.39
2023-02-08T10:29:24.915Z,28.79
2023-02-08T10:31:59.571Z,29.92
2023-02-08T10:34:34.530Z,30.18
2023-02-08T10:37:17.878Z,28.97
2023-02-08T10:39:48.393Z,28.73
2023-02-08T10:42:19.607Z,29.24
2023-02-08T10:44:59.486Z,28.19
2023-02-08T10:47:36.600Z,28.53
2023-02-08T10:50:21.877Z,28.62
2023-02-08T10:52:50.329Z,28.55
2023-02-08T10:55:21.536Z,28.11
2023-02-08T10:57:52.657Z,27.47
2023-02-08T11:00:30.370Z,29.33
2023-02-08T11:03:03.435Z,27.61
2023-02-08T11:05:35.813Z,28.46
2023-02-08T11:08:23.459Z,29.61
2023-02-08T11:11:04.661Z,29.91
2023-02-08T11:13:40.902Z,33.54
2023-02-08T11:16:14.726Z,33.19
2023-02-08T11:18:52.481Z,33.45
2023-02-08T11:21:26.573Z,32.04
2023-02-08T11:23:56.282Z,32.29
2023-02-08T11:26:37.757Z,32.34
2023-02-08T11:29:18.393Z,32.38
2023-02-08T11:32:03.834Z,31.50
2023-02-08T11:34:39.010Z,33.48
2023-02-08T11:37:26.814Z,34.57
2023-02-08T11:40:00.575Z,33.04
2023-02-08T11:42:36.660Z,31.46
2023-02-08T11:45:05.603Z,29.92
2023-02-08T11:47:35.994Z,31.34
2023-02-08T11:50:09.093Z,32.03
2023-02-08T11:52:39.562Z,33.43
2023-02-08T11:55:23.435Z,32.12
2023-02-08T11:58:19.617Z,34.34
2023-02-08T12:01:01.128Z,33.51
2023-02-08T12:03:35.358Z,32.70
2023-02-08T12:06:22.905Z,31.02
2023-02-08T12:08:57.290Z,29.91
2023-02-08T12:11:47.026Z,31.30
2023-02-08T12:14:49.087Z,31.31
2023-02-08T12:17:42.744Z,31.45
2023-02-08T12:20:18.431Z,31.56
2023-02-08T12:22:56.262Z,32.56
2023-02-08T12:25:41.599Z,33.04
2023-02-08T12:28:56.741Z,33.22
2023-02-08T12:31:41.745Z,34.88
2023-02-08T12:34:34.350Z,36.88
2023-02-08T12:37:22.464Z,37.16
2023-02-08T12:40:34.484Z,38.23
2023-02-08T12:43:27.915Z,38.95
2023-02-08T12:46:12.393Z,39.41
2023-02-08T12:48:59.486Z,39.21
2023-02-08T12:51:48.801Z,38.85
2023-02-08T12:54:23.400Z,39.09
2023-02-08T12:57:01.658Z,38.73
2023-02-08T12:59:44.052Z,40.50
2023-02-08T13:02:20.124Z,37.88
2023-02-08T13:04:50.234Z,39.17
2023-02-08T13:07:32.170Z,37.53
2023-02-08T13:10:08.697Z,36.61
2023-02-08T13:12:40.491Z,36.64
2023-02-08T13:15:30.113Z,36.54
2023-02-08T13:17:59.151Z,36.97
2023-02-08T13:20:48.078Z,36.94
2023-02-08T13:23:22.698Z,37.44
2023-02-08T13:26:02.623Z,37.22
2023-02-08T13:28:30.821Z,36.20
2023-02-08T13:31:05.838Z,36.39
2023-02-08T13:33:59.217Z,35.96
2023-02-08T13:36:31.894Z,36.42
2023-02-08T13:39:02.435Z,37.42
2023-02-08T13:41:33.770Z,37.31
2023-02-08T13:44:07.704Z,38.27
2023-02-08T13:46:53.469Z,38.45
2023-02-08T13:49:44.950Z,38.76
2023-02-08T13:52:46.961Z,39.71
2023-02-08T13:55:37.533Z,40.69
2023-02-08T13:58:14.861Z,40.67
2023-02-08T14:00:55.213Z,40.37
2023-02-08T14:03:27.467Z,40.03
2023-02-08T14:05:59.186Z,39.14
2023-02-08T14:08:39.703Z,39.23
2023-02-08T14:11:19.054Z,39.00
2023-02-08T14:14:21.102Z,41.33
2023-02-08T14:17:04.520Z,38.84
2023-02-08T14:19:37.474Z,38.29
2023-02-08T14:22:12.669Z,37.77
2023-02-08T14:24:43.998Z,39.10
2023-02-08T14:27:42.001Z,38.80
2023-02-08T14:30:16.456Z,39.09
2023-02-08T14:32:47.887Z,38.38
2023-02-08T14:35:16.102Z,38.33
2023-02-08T14:37:45.108Z,37.98
2023-02-08T14:40:24.805Z,37.98
2023-02-08T14:42:53.455Z,38.70
2023-02-08T14:45:39.570Z,37.67
2023-02-08T14:48:31.414Z,39.16
2023-02-08T14:51:09.209Z,38.84
2023-02-08T14:53:49.200Z,38.48
2023-02-08T14:56:26.947Z,38.00
2023-02-08T14:59:13.834Z,38.28
2023-02-08T15:01:56.599Z,38.79
2023-02-08T15:04:25.336Z,39.16
2023-02-08T15:07:20.341Z,39.01
2023-02-08T15:09:48.631Z,39.07
2023-02-08T15:12:26.398Z,39.52
2023-02-08T15:14:55.885Z,39.71
2023-02-08T15:17:40.845Z,39.62
2023-02-08T15:20:19.020Z,39.84
2023-02-08T15:22:47.212Z,40.11
2023-02-08T15:25:25.690Z,40.04
2023-02-08T15:27:56.866Z,40.99
2023-02-08T15:30:36.786Z,42.26
2023-02-08T15:33:14.780Z,40.71
2023-02-08T15:35:43.958Z,40.81
2023-02-08T15:38:18.582Z,40.39
2023-02-08T15:41:07.066Z,40.67
2023-02-08T15:43:42.681Z,42.84
2023-02-08T15:46:23.263Z,41.62
2023-02-08T15:48:53.744Z,41.85
2023-02-08T15:51:24.441Z,43.55
2023-02-08T15:53:54.351Z,42.76
2023-02-08T15:56:36.821Z,42.76
2023-02-08T15:59:08.599Z,43.53
2023-02-08T16:01:37.703Z,43.16
2023-02-08T16:04:08.169Z,42.43
2023-02-08T16:06:48.616Z,43.15
2023-02-08T16:09:20.031Z,42.38
2023-02-08T16:11:50.263Z,42.56
2023-02-08T16:14:24.218Z,44.18
2023-02-08T16:16:57.537Z,43.98
2023-02-08T16:19:30.770Z,43.81
2023-02-08T16:22:14.048Z,43.83
2023-02-08T16:24:42.550Z,43.72
2023-02-08T16:27:26.166Z,43.64
2023-02-08T16:29:54.541Z,43.47
2023-02-08T16:32:33.611Z,43.79
2023-02-08T16:35:12.423Z,43.64
2023-02-08T16:37:40.696Z,44.91
2023-02-08T16:40:27.865Z,45.50
2023-02-08T16:43:15.206Z,45.18
2023-02-08T16:45:43.681Z,44.64
2023-02-08T16:48:33.580Z,45.32
2023-02-08T16:51:03.075Z,45.20
2023-02-08T16:53:41.229Z,45.71
2023-02-08T16:56:12.896Z,45.89
2023-02-08T16:58:40.907Z,45.74
2023-02-08T17:01:13.160Z,45.20
2023-02-08T17:03:41.703Z,44.93
2023-02-08T17:06:26.864Z,45.80
2023-02-08T17:08:57.135Z,45.70
2023-02-08T17:11:27.687Z,45.44
2023-02-08T17:13:56.117Z,45.15
2023-02-08T17:16:26.478Z,45.96
2023-02-08T17:18:54.732Z,46.30
2023-02-08T17:21:22.996Z,45.66
2023-02-08T17:23:50.964Z,48.70
2023-02-08T17:26:27.649Z,52.81
2023-02-08T17:28:56.630Z,52.84
2023-02-08T17:31:26.243Z,49.99
2023-02-08T17:33:54.612Z,48.31
2023-02-08T17:36:22.694Z,49.25
2023-02-08T17:38:51.478Z,50.37
2023-02-08T17:41:21.161Z,49.16
2023-02-08T17:43:56.912Z,51.44
2023-02-08T17:46:30.627Z,50.65
2023-02-08T17:49:02.003Z,52.44
2023-02-08T17:51:31.562Z,51.87
2023-02-08T17:53:59.515Z,51.86
2023-02-08T17:56:28.766Z,51.27
2023-02-08T17:58:59.373Z,51.72
2023-02-08T18:01:30.414Z,51.74
2023-02-08T18:03:59.694Z,52.71
2023-02-08T18:06:28.904Z,52.24
2023-02-08T18:08:56.785Z,52.70
2023-02-08T18:11:25.092Z,54.26
2023-02-08T18:13:54.134Z,53.89
2023-02-08T18:16:24.675Z,52.46
2023-02-08T18:18:57.530Z,54.07
2023-02-08T18:21:26.135Z,52.19
2023-02-08T18:23:55.634Z,52.74
2023-02-08T18:26:24.791Z,52.26
2023-02-08T18:28:53.065Z,52.04
2023-02-08T18:31:21.492Z,52.80
2023-02-08T18:33:50.197Z,52.16
2023-02-08T18:36:18.914Z,51.24
2023-02-08T18:38:48.720Z,51.09
2023-02-08T18:41:22.422Z,50.25
2023-02-08T18:43:50.865Z,50.48
2023-02-08T18:46:21.342Z,49.97
2023-02-08T18:48:50.771Z,52.43
2023-02-08T18:51:20.350Z,51.09
2023-02-08T18:53:51.054Z,50.29
2023-02-08T18:56:24.318Z,51.21
2023-02-08T18:58:53.884Z,50.98
2023-02-08T19:01:23.821Z,50.26
2023-02-08T19:03:52.301Z,49.23
2023-02-08T19:06:27.389Z,49.95
2023-02-08T19:08:57.297Z,49.73
2023-02-08T19:11:28.605Z,50.93
2023-02-08T19:14:01.328Z,50.98
2023-02-08T19:16:33.456Z,50.08
2023-02-08T19:19:01.868Z,50.37
2023-02-08T19:21:30.923Z,50.74
2023-02-08T19:24:03.646Z,52.25
2023-02-08T19:26:39.750Z,52.04
2023-02-08T19:29:15.311Z,51.94
2023-02-08T19:31:44.740Z,52.50
2023-02-08T19:34:12.925Z,52.94
2023-02-08T19:36:46.817Z,52.08
2023-02-08T19:39:16.816Z,52.09
2023-02-08T19:41:45.688Z,53.81
2023-02-08T19:44:16.102Z,54.69
2023-02-08T19:46:49.669Z,55.09
2023-02-08T19:49:18.493Z,54.93
2023-02-08T19:51:47.646Z,54.00
2023-02-08T19:54:18.218Z,54.88
2023-02-08T19:56:47.269Z,55.71
2023-02-08T19:59:27.337Z,55.67
2023-02-08T20:01:56.886Z,54.23
2023-02-08T20:04:25.824Z,54.57
2023-02-08T20:06:54.059Z,54.92
2023-02-08T20:09:22.922Z,55.46
2023-02-08T20:12:00.115Z,56.70
2023-02-08T20:14:31.293Z,55.76
2023-02-08T20:17:01.118Z,57.06
2023-02-08T20:19:31.817Z,55.19
2023-02-08T20:22:00.142Z,57.57
2023-02-08T20:24:28.682Z,57.95
2023-02-08T20:26:56.484Z,55.43
2023-02-08T20:29:26.570Z,56.06
2023-02-08T20:31:58.266Z,59.88
2023-02-08T20:34:27.324Z,60.95
2023-02-08T20:37:06.718Z,60.23
2023-02-08T20:39:36.605Z,59.54
2023-02-08T20:42:04.974Z,61.28
2023-02-08T20:44:32.846Z,58.26
2023-02-08T20:47:01.589Z,58.11
2023-02-08T20:49:32.373Z,58.74
2023-02-08T20:52:00.692Z,58.70
2023-02-08T20:54:29.006Z,60.97
2023-02-08T20:56:57.131Z,60.73
2023-02-08T20:59:25.074Z,60.86
2023-02-08T21:01:53.360Z,61.62
2023-02-08T21:04:23.675Z,60.09
2023-02-08T21:06:52.330Z,58.78
2023-02-08T21:09:21.312Z,59.90
2023-02-08T21:11:50.121Z,59.68
2023-02-08T21:14:21.064Z,59.67
2023-02-08T21:16:52.005Z,61.76
2023-02-08T21:19:20.929Z,59.77
2023-02-08T21:21:58.180Z,58.63
2023-02-08T21:24:27.157Z,58.37
2023-02-08T21:26:56.892Z,58.05
2023-02-08T21:29:25.297Z,59.75
2023-02-08T21:31:54.771Z,60.57
2023-02-08T21:34:23.351Z,60.48
2023-02-08T21:36:51.253Z,59.79
2023-02-08T21:39:19.736Z,62.85
2023-02-08T21:41:48.617Z,61.62
2023-02-08T21:44:16.623Z,63.63
2023-02-08T21:46:44.543Z,61.74
2023-02-08T21:49:31.360Z,62.06
2023-02-08T21:52:17.844Z,61.56
2023-02-08T21:54:46.949Z,62.50
2023-02-08T21:57:27.059Z,61.70
2023-02-08T21:59:58.430Z,64.61
2023-02-08T22:02:29.180Z,62.24
2023-02-08T22:05:22.148Z,61.20
2023-02-08T22:07:54.029Z,62.30
2023-02-08T22:10:24.585Z,60.49
2023-02-08T22:12:55.435Z,61.12
2023-02-08T22:15:26.975Z,62.12
2023-02-08T22:17:56.268Z,65.47
2023-02-08T22:20:24.868Z,63.10
2023-02-08T22:22:55.107Z,63.65
2023-02-08T22:25:24.133Z,63.83
2023-02-08T22:27:52.544Z,64.20
2023-02-08T22:30:20.490Z,62.62
2023-02-08T22:32:49.409Z,62.41
2023-02-08T22:35:18.960Z,63.74
2023-02-08T22:37:46.959Z,63.24
2023-02-08T22:40:14.843Z,64.46
2023-02-08T22:42:43.296Z,63.92
2023-02-08T22:45:11.591Z,65.03
2023-02-08T22:47:39.583Z,65.25
2023-02-08T22:50:08.558Z,67.97
2023-02-08T22:52:36.658Z,65.81
2023-02-08T22:55:05.287Z,65.56
2023-02-08T22:57:34.963Z,64.76
2023-02-08T23:00:05.619Z,64.48
2023-02-08T23:02:33.985Z,65.09
2023-02-08T23:05:01.860Z,64.88
2023-02-08T23:07:29.746Z,65.37
2023-02-08T23:09:58.047Z,64.99
2023-02-08T23:12:25.947Z,66.40
2023-02-08T23:14:53.839Z,65.99
2023-02-08T23:17:22.175Z,67.17
2023-02-08T23:19:52.782Z,66.68
2023-02-08T23:22:20.669Z,66.79
2023-02-08T23:24:49.064Z,67.73
2023-02-08T23:27:16.955Z,66.23
2023-02-08T23:29:44.885Z,67.44
2023-02-08T23:32:13.158Z,67.32
2023-02-08T23:34:41.013Z,66.21
2023-02-08T23:37:08.856Z,66.11
2023-02-08T23:39:37.131Z,65.62
2023-02-08T23:42:05.898Z,64.81
2023-02-08T23:44:33.771Z,64.88
2023-02-08T23:47:02.150Z,65.00
2023-02-08T23:49:30.066Z,65.23
2023-02-08T23:51:57.861Z,66.85
2023-02-08T23:54:26.304Z,67.72
2023-02-08T23:56:54.395Z,67.66
2023-02-08T23:59:22.175Z,64.96
